sensor_id;sensor_type;location;lat;lon;timestamp;P1;durP1;ratioP1;P2;durP2;ratioP2
75087;SDS011;63664;44.868;40.600;2023-02-21T00:02:16;3.05;;;0.93;;
75087;SDS011;63664;44.868;40.600;2023-02-21T00:05:02;4.70;;;0.80;;
75087;SDS011;63664;44.868;40.600;2023-02-21T00:07:47;1.02;;;0.70;;
75087;SDS011;63664;44.868;40.600;2023-02-21T00:10:31;1.23;;;0.65;;
75087;SDS011;63664;44.868;40.600;2023-02-21T00:13:19;1.17;;;0.73;;
75087;SDS011;63664;44.868;40.600;2023-02-21T00:16:03;3.25;;;1.17;;
75087;SDS011;63664;44.868;40.600;2023-02-21T00:18:48;1.20;;;0.88;;
75087;SDS011;63664;44.868;40.600;2023-02-21T00:21:33;9.93;;;2.95;;
75087;SDS011;63664;44.868;40.600;2023-02-21T00:24:18;7.50;;;2.30;;
75087;SDS011;63664;44.868;40.600;2023-02-21T00:27:03;5.88;;;2.22;;
75087;SDS011;63664;44.868;40.600;2023-02-21T00:29:48;19.15;;;5.40;;
75087;SDS011;63664;44.868;40.600;2023-02-21T00:32:34;16.58;;;4.68;;
75087;SDS011;63664;44.868;40.600;2023-02-21T00:35:19;11.80;;;3.28;;
75087;SDS011;63664;44.868;40.600;2023-02-21T00:38:09;10.15;;;2.92;;
75087;SDS011;63664;44.868;40.600;2023-02-21T00:40:57;11.23;;;4.60;;
75087;SDS011;63664;44.868;40.600;2023-02-21T00:43:41;4.28;;;1.70;;
75087;SDS011;63664;44.868;40.600;2023-02-21T00:46:26;7.88;;;2.33;;
75087;SDS011;63664;44.868;40.600;2023-02-21T00:49:11;3.20;;;1.92;;
75087;SDS011;63664;44.868;40.600;2023-02-21T00:51:58;6.53;;;2.13;;
75087;SDS011;63664;44.868;40.600;2023-02-21T00:54:43;2.78;;;1.10;;
75087;SDS011;63664;44.868;40.600;2023-02-21T00:57:29;2.22;;;1.42;;
75087;SDS011;63664;44.868;40.600;2023-02-21T01:00:20;8.52;;;1.27;;
75087;SDS011;63664;44.868;40.600;2023-02-21T01:03:07;6.03;;;2.00;;
75087;SDS011;63664;44.868;40.600;2023-02-21T01:05:54;2.38;;;0.93;;
75087;SDS011;63664;44.868;40.600;2023-02-21T01:08:40;4.82;;;1.42;;
75087;SDS011;63664;44.868;40.600;2023-02-21T01:11:26;1.75;;;1.10;;
75087;SDS011;63664;44.868;40.600;2023-02-21T01:14:10;1.23;;;0.90;;
75087;SDS011;63664;44.868;40.600;2023-02-21T01:16:58;3.75;;;1.35;;
75087;SDS011;63664;44.868;40.600;2023-02-21T01:19:43;3.70;;;2.05;;
75087;SDS011;63664;44.868;40.600;2023-02-21T01:22:28;5.88;;;1.60;;
75087;SDS011;63664;44.868;40.600;2023-02-21T01:25:13;1.92;;;0.93;;
75087;SDS011;63664;44.868;40.600;2023-02-21T01:27:59;1.40;;;1.00;;
75087;SDS011;63664;44.868;40.600;2023-02-21T01:30:44;0.50;;;0.50;;
75087;SDS011;63664;44.868;40.600;2023-02-21T01:33:38;2.53;;;1.20;;
75087;SDS011;63664;44.868;40.600;2023-02-21T01:36:28;2.88;;;1.10;;
75087;SDS011;63664;44.868;40.600;2023-02-21T01:39:12;2.45;;;0.80;;
75087;SDS011;63664;44.868;40.600;2023-02-21T01:42:02;2.38;;;0.93;;
75087;SDS011;63664;44.868;40.600;2023-02-21T01:44:48;1.50;;;0.70;;
75087;SDS011;63664;44.868;40.600;2023-02-21T01:47:33;1.30;;;0.70;;
75087;SDS011;63664;44.868;40.600;2023-02-21T01:50:22;2.97;;;0.80;;
75087;SDS011;63664;44.868;40.600;2023-02-21T01:53:12;3.42;;;1.05;;
75087;SDS011;63664;44.868;40.600;2023-02-21T01:56:09;1.15;;;0.60;;
75087;SDS011;63664;44.868;40.600;2023-02-21T01:58:55;2.05;;;1.15;;
75087;SDS011;63664;44.868;40.600;2023-02-21T02:04:42;0.95;;;0.70;;
75087;SDS011;63664;44.868;40.600;2023-02-21T02:07:33;4.07;;;1.15;;
75087;SDS011;63664;44.868;40.600;2023-02-21T02:10:19;1.40;;;0.75;;
75087;SDS011;63664;44.868;40.600;2023-02-21T02:35:27;2.30;;;0.73;;
75087;SDS011;63664;44.868;40.600;2023-02-21T02:48:45;3.00;;;0.85;;
75087;SDS011;63664;44.868;40.600;2023-02-21T02:51:20;2.97;;;1.38;;
75087;SDS011;63664;44.868;40.600;2023-02-21T02:53:48;1.38;;;0.68;;
75087;SDS011;63664;44.868;40.600;2023-02-21T02:56:17;3.38;;;0.88;;
75087;SDS011;63664;44.868;40.600;2023-02-21T02:58:47;3.08;;;0.70;;
75087;SDS011;63664;44.868;40.600;2023-02-21T03:01:35;2.60;;;0.63;;
75087;SDS011;63664;44.868;40.600;2023-02-21T03:09:56;3.67;;;0.65;;
75087;SDS011;63664;44.868;40.600;2023-02-21T03:17:45;5.18;;;1.10;;
75087;SDS011;63664;44.868;40.600;2023-02-21T03:20:36;4.85;;;1.27;;
75087;SDS011;63664;44.868;40.600;2023-02-21T03:23:04;4.50;;;1.50;;
75087;SDS011;63664;44.868;40.600;2023-02-21T03:25:32;4.15;;;1.33;;
75087;SDS011;63664;44.868;40.600;2023-02-21T03:28:02;5.13;;;2.17;;
75087;SDS011;63664;44.868;40.600;2023-02-21T03:30:37;4.95;;;1.95;;
75087;SDS011;63664;44.868;40.600;2023-02-21T03:33:07;5.45;;;1.77;;
75087;SDS011;63664;44.868;40.600;2023-02-21T03:35:35;4.90;;;2.22;;
75087;SDS011;63664;44.868;40.600;2023-02-21T03:38:02;3.75;;;1.50;;
75087;SDS011;63664;44.868;40.600;2023-02-21T03:40:32;3.50;;;1.50;;
75087;SDS011;63664;44.868;40.600;2023-02-21T03:43:03;2.70;;;1.33;;
75087;SDS011;63664;44.868;40.600;2023-02-21T03:45:37;2.85;;;1.00;;
75087;SDS011;63664;44.868;40.600;2023-02-21T03:48:08;1.73;;;0.88;;
75087;SDS011;63664;44.868;40.600;2023-02-21T03:50:39;1.45;;;0.85;;
75087;SDS011;63664;44.868;40.600;2023-02-21T03:53:08;2.13;;;1.48;;
75087;SDS011;63664;44.868;40.600;2023-02-21T03:55:42;1.73;;;0.90;;
75087;SDS011;63664;44.868;40.600;2023-02-21T03:58:18;1.17;;;0.60;;
75087;SDS011;63664;44.868;40.600;2023-02-21T04:00:45;1.02;;;0.77;;
75087;SDS011;63664;44.868;40.600;2023-02-21T04:03:16;3.78;;;1.13;;
75087;SDS011;63664;44.868;40.600;2023-02-21T04:05:50;4.40;;;1.30;;
75087;SDS011;63664;44.868;40.600;2023-02-21T04:08:19;3.55;;;2.15;;
75087;SDS011;63664;44.868;40.600;2023-02-21T04:10:45;4.43;;;2.15;;
75087;SDS011;63664;44.868;40.600;2023-02-21T04:13:12;1.20;;;1.00;;
75087;SDS011;63664;44.868;40.600;2023-02-21T04:15:43;2.17;;;0.88;;
75087;SDS011;63664;44.868;40.600;2023-02-21T04:18:12;1.52;;;0.98;;
75087;SDS011;63664;44.868;40.600;2023-02-21T04:20:42;5.38;;;1.10;;
75087;SDS011;63664;44.868;40.600;2023-02-21T04:23:18;2.70;;;0.73;;
75087;SDS011;63664;44.868;40.600;2023-02-21T04:25:48;3.10;;;1.42;;
75087;SDS011;63664;44.868;40.600;2023-02-21T04:28:21;4.97;;;1.23;;
75087;SDS011;63664;44.868;40.600;2023-02-21T04:30:47;5.18;;;1.60;;
75087;SDS011;63664;44.868;40.600;2023-02-21T04:33:14;7.63;;;2.20;;
75087;SDS011;63664;44.868;40.600;2023-02-21T04:35:40;1.48;;;0.82;;
75087;SDS011;63664;44.868;40.600;2023-02-21T04:38:21;3.40;;;1.42;;
75087;SDS011;63664;44.868;40.600;2023-02-21T04:40:47;2.38;;;1.10;;
75087;SDS011;63664;44.868;40.600;2023-02-21T04:43:13;2.72;;;1.00;;
75087;SDS011;63664;44.868;40.600;2023-02-21T04:45:44;1.67;;;0.70;;
75087;SDS011;63664;44.868;40.600;2023-02-21T04:48:11;2.13;;;0.80;;
75087;SDS011;63664;44.868;40.600;2023-02-21T04:50:39;1.38;;;0.85;;
75087;SDS011;63664;44.868;40.600;2023-02-21T04:53:05;2.72;;;1.40;;
75087;SDS011;63664;44.868;40.600;2023-02-21T04:55:32;3.50;;;0.93;;
75087;SDS011;63664;44.868;40.600;2023-02-21T04:57:58;1.30;;;0.73;;
75087;SDS011;63664;44.868;40.600;2023-02-21T05:00:27;3.20;;;1.52;;
75087;SDS011;63664;44.868;40.600;2023-02-21T05:02:56;7.00;;;1.63;;
75087;SDS011;63664;44.868;40.600;2023-02-21T05:05:25;5.70;;;1.77;;
75087;SDS011;63664;44.868;40.600;2023-02-21T05:07:54;5.20;;;1.92;;
75087;SDS011;63664;44.868;40.600;2023-02-21T05:10:25;3.13;;;1.30;;
75087;SDS011;63664;44.868;40.600;2023-02-21T05:12:52;2.70;;;0.82;;
75087;SDS011;63664;44.868;40.600;2023-02-21T05:15:18;2.42;;;0.98;;
75087;SDS011;63664;44.868;40.600;2023-02-21T05:17:49;3.42;;;0.80;;
75087;SDS011;63664;44.868;40.600;2023-02-21T05:20:18;2.15;;;0.63;;
75087;SDS011;63664;44.868;40.600;2023-02-21T05:22:45;1.20;;;0.50;;
75087;SDS011;63664;44.868;40.600;2023-02-21T05:25:17;1.90;;;0.57;;
75087;SDS011;63664;44.868;40.600;2023-02-21T05:27:49;0.60;;;0.40;;
75087;SDS011;63664;44.868;40.600;2023-02-21T05:30:18;3.83;;;0.73;;
75087;SDS011;63664;44.868;40.600;2023-02-21T05:32:47;2.72;;;0.52;;
75087;SDS011;63664;44.868;40.600;2023-02-21T05:35:14;1.20;;;0.50;;
75087;SDS011;63664;44.868;40.600;2023-02-21T05:37:41;0.63;;;0.32;;
75087;SDS011;63664;44.868;40.600;2023-02-21T05:40:11;1.33;;;0.52;;
75087;SDS011;63664;44.868;40.600;2023-02-21T05:42:42;0.90;;;0.63;;
75087;SDS011;63664;44.868;40.600;2023-02-21T05:45:11;2.42;;;0.65;;
75087;SDS011;63664;44.868;40.600;2023-02-21T05:47:39;2.78;;;0.70;;
75087;SDS011;63664;44.868;40.600;2023-02-21T05:50:06;0.43;;;0.43;;
75087;SDS011;63664;44.868;40.600;2023-02-21T05:52:32;0.30;;;0.30;;
75087;SDS011;63664;44.868;40.600;2023-02-21T05:55:00;3.25;;;0.52;;
75087;SDS011;63664;44.868;40.600;2023-02-21T05:57:27;0.85;;;0.50;;
75087;SDS011;63664;44.868;40.600;2023-02-21T05:59:55;1.00;;;0.40;;
75087;SDS011;63664;44.868;40.600;2023-02-21T06:02:21;3.58;;;0.63;;
75087;SDS011;63664;44.868;40.600;2023-02-21T06:04:48;0.90;;;0.30;;
75087;SDS011;63664;44.868;40.600;2023-02-21T06:07:14;1.45;;;0.60;;
75087;SDS011;63664;44.868;40.600;2023-02-21T06:09:41;1.30;;;0.50;;
75087;SDS011;63664;44.868;40.600;2023-02-21T06:12:10;0.80;;;0.80;;
75087;SDS011;63664;44.868;40.600;2023-02-21T06:14:39;5.32;;;1.80;;
75087;SDS011;63664;44.868;40.600;2023-02-21T06:17:05;2.95;;;0.93;;
75087;SDS011;63664;44.868;40.600;2023-02-21T06:19:31;1.17;;;0.65;;
75087;SDS011;63664;44.868;40.600;2023-02-21T06:21:57;0.73;;;0.63;;
75087;SDS011;63664;44.868;40.600;2023-02-21T06:24:26;2.78;;;1.65;;
75087;SDS011;63664;44.868;40.600;2023-02-21T06:26:55;4.60;;;1.27;;
75087;SDS011;63664;44.868;40.600;2023-02-21T06:29:22;4.28;;;1.73;;
75087;SDS011;63664;44.868;40.600;2023-02-21T06:31:50;1.65;;;0.95;;
75087;SDS011;63664;44.868;40.600;2023-02-21T06:34:26;1.35;;;0.82;;
75087;SDS011;63664;44.868;40.600;2023-02-21T06:36:55;0.45;;;0.30;;
75087;SDS011;63664;44.868;40.600;2023-02-21T06:39:22;0.88;;;0.60;;
75087;SDS011;63664;44.868;40.600;2023-02-21T06:41:49;3.83;;;1.40;;
75087;SDS011;63664;44.868;40.600;2023-02-21T06:44:21;2.08;;;0.80;;
75087;SDS011;63664;44.868;40.600;2023-02-21T06:46:47;5.10;;;1.20;;
75087;SDS011;63664;44.868;40.600;2023-02-21T06:49:22;1.98;;;0.98;;
75087;SDS011;63664;44.868;40.600;2023-02-21T06:51:48;2.63;;;1.00;;
75087;SDS011;63664;44.868;40.600;2023-02-21T06:54:19;0.45;;;0.30;;
75087;SDS011;63664;44.868;40.600;2023-02-21T06:56:46;0.65;;;0.20;;
75087;SDS011;63664;44.868;40.600;2023-02-21T06:59:12;0.45;;;0.20;;
75087;SDS011;63664;44.868;40.600;2023-02-21T07:01:41;0.65;;;0.50;;
75087;SDS011;63664;44.868;40.600;2023-02-21T07:04:09;1.17;;;0.50;;
75087;SDS011;63664;44.868;40.600;2023-02-21T07:06:38;4.97;;;0.90;;
75087;SDS011;63664;44.868;40.600;2023-02-21T07:09:04;4.07;;;0.77;;
75087;SDS011;63664;44.868;40.600;2023-02-21T07:11:32;0.68;;;0.45;;
75087;SDS011;63664;44.868;40.600;2023-02-21T07:13:59;1.65;;;0.65;;
75087;SDS011;63664;44.868;40.600;2023-02-21T07:16:26;0.90;;;0.40;;
75087;SDS011;63664;44.868;40.600;2023-02-21T07:18:52;1.80;;;0.43;;
75087;SDS011;63664;44.868;40.600;2023-02-21T07:21:21;0.63;;;0.32;;
75087;SDS011;63664;44.868;40.600;2023-02-21T07:23:48;2.72;;;1.20;;
75087;SDS011;63664;44.868;40.600;2023-02-21T07:26:14;2.22;;;0.60;;
75087;SDS011;63664;44.868;40.600;2023-02-21T07:28:43;0.50;;;0.30;;
75087;SDS011;63664;44.868;40.600;2023-02-21T07:31:13;1.88;;;0.38;;
75087;SDS011;63664;44.868;40.600;2023-02-21T07:33:39;0.60;;;0.30;;
75087;SDS011;63664;44.868;40.600;2023-02-21T07:36:10;1.83;;;0.85;;
75087;SDS011;63664;44.868;40.600;2023-02-21T07:38:41;2.55;;;0.80;;
75087;SDS011;63664;44.868;40.600;2023-02-21T07:41:10;5.15;;;1.33;;
75087;SDS011;63664;44.868;40.600;2023-02-21T07:43:36;1.13;;;0.75;;
75087;SDS011;63664;44.868;40.600;2023-02-21T07:46:03;2.05;;;0.60;;
75087;SDS011;63664;44.868;40.600;2023-02-21T07:48:34;7.65;;;1.25;;
75087;SDS011;63664;44.868;40.600;2023-02-21T07:51:02;1.65;;;0.52;;
75087;SDS011;63664;44.868;40.600;2023-02-21T07:53:33;1.83;;;0.80;;
75087;SDS011;63664;44.868;40.600;2023-02-21T07:56:03;4.45;;;1.30;;
75087;SDS011;63664;44.868;40.600;2023-02-21T07:58:30;0.85;;;0.40;;
75087;SDS011;63664;44.868;40.600;2023-02-21T08:00:57;7.53;;;1.55;;
75087;SDS011;63664;44.868;40.600;2023-02-21T08:03:23;11.23;;;2.78;;
75087;SDS011;63664;44.868;40.600;2023-02-21T08:05:52;9.38;;;2.40;;
75087;SDS011;63664;44.868;40.600;2023-02-21T08:08:18;13.15;;;2.28;;
75087;SDS011;63664;44.868;40.600;2023-02-21T08:10:48;1.13;;;0.52;;
75087;SDS011;63664;44.868;40.600;2023-02-21T08:13:16;0.65;;;0.30;;
75087;SDS011;63664;44.868;40.600;2023-02-21T08:15:43;0.63;;;0.32;;
75087;SDS011;63664;44.868;40.600;2023-02-21T08:18:17;3.13;;;0.20;;
75087;SDS011;63664;44.868;40.600;2023-02-21T08:20:52;0.52;;;0.38;;
75087;SDS011;63664;44.868;40.600;2023-02-21T08:23:20;0.10;;;0.10;;
75087;SDS011;63664;44.868;40.600;2023-02-21T08:25:46;0.10;;;0.10;;
75087;SDS011;63664;44.868;40.600;2023-02-21T08:28:14;0.03;;;0.00;;
75087;SDS011;63664;44.868;40.600;2023-02-21T08:30:40;0.20;;;0.20;;
75087;SDS011;63664;44.868;40.600;2023-02-21T08:33:07;0.10;;;0.10;;
75087;SDS011;63664;44.868;40.600;2023-02-21T08:35:36;0.32;;;0.10;;
75087;SDS011;63664;44.868;40.600;2023-02-21T08:38:03;0.10;;;0.10;;
75087;SDS011;63664;44.868;40.600;2023-02-21T08:40:34;0.57;;;0.10;;
75087;SDS011;63664;44.868;40.600;2023-02-21T08:43:03;1.55;;;0.20;;
75087;SDS011;63664;44.868;40.600;2023-02-21T08:45:34;0.25;;;0.15;;
75087;SDS011;63664;44.868;40.600;2023-02-21T08:48:03;0.35;;;0.30;;
75087;SDS011;63664;44.868;40.600;2023-02-21T08:50:35;2.47;;;0.35;;
75087;SDS011;63664;44.868;40.600;2023-02-21T08:53:03;5.38;;;1.15;;
75087;SDS011;63664;44.868;40.600;2023-02-21T08:55:33;5.28;;;1.42;;
75087;SDS011;63664;44.868;40.600;2023-02-21T08:57:59;2.80;;;0.60;;
75087;SDS011;63664;44.868;40.600;2023-02-21T09:00:28;0.90;;;0.55;;
75087;SDS011;63664;44.868;40.600;2023-02-21T09:02:59;1.33;;;0.63;;
75087;SDS011;63664;44.868;40.600;2023-02-21T09:05:29;0.90;;;0.40;;
75087;SDS011;63664;44.868;40.600;2023-02-21T09:07:57;0.50;;;0.25;;
75087;SDS011;63664;44.868;40.600;2023-02-21T09:10:27;0.25;;;0.20;;
75087;SDS011;63664;44.868;40.600;2023-02-21T09:13:05;1.02;;;0.50;;
75087;SDS011;63664;44.868;40.600;2023-02-21T09:15:32;0.20;;;0.10;;
75087;SDS011;63664;44.868;40.600;2023-02-21T09:17:58;4.68;;;0.25;;
75087;SDS011;63664;44.868;40.600;2023-02-21T09:20:29;1.63;;;0.80;;
75087;SDS011;63664;44.868;40.600;2023-02-21T09:22:57;1.27;;;0.52;;
75087;SDS011;63664;44.868;40.600;2023-02-21T09:25:24;0.15;;;0.15;;
75087;SDS011;63664;44.868;40.600;2023-02-21T09:27:51;4.85;;;2.08;;
75087;SDS011;63664;44.868;40.600;2023-02-21T09:30:21;0.47;;;0.30;;
75087;SDS011;63664;44.868;40.600;2023-02-21T09:32:54;0.20;;;0.20;;
75087;SDS011;63664;44.868;40.600;2023-02-21T09:35:23;0.30;;;0.20;;
75087;SDS011;63664;44.868;40.600;2023-02-21T09:37:49;0.20;;;0.13;;
75087;SDS011;63664;44.868;40.600;2023-02-21T09:42:55;0.43;;;0.13;;
75087;SDS011;63664;44.868;40.600;2023-02-21T09:45:24;0.30;;;0.22;;
75087;SDS011;63664;44.868;40.600;2023-02-21T09:47:57;1.70;;;0.40;;
75087;SDS011;63664;44.868;40.600;2023-02-21T09:50:31;0.15;;;0.15;;
75087;SDS011;63664;44.868;40.600;2023-02-21T09:53:04;0.60;;;0.10;;
75087;SDS011;63664;44.868;40.600;2023-02-21T09:55:38;1.42;;;0.00;;
75087;SDS011;63664;44.868;40.600;2023-02-21T09:58:10;0.50;;;0.30;;
75087;SDS011;63664;44.868;40.600;2023-02-21T10:00:42;0.65;;;0.30;;
75087;SDS011;63664;44.868;40.600;2023-02-21T10:06:38;0.10;;;0.10;;
75087;SDS011;63664;44.868;40.600;2023-02-21T10:17:23;0.13;;;0.10;;
75087;SDS011;63664;44.868;40.600;2023-02-21T10:21:01;0.30;;;0.20;;
75087;SDS011;63664;44.868;40.600;2023-02-21T10:25:44;0.13;;;0.13;;
75087;SDS011;63664;44.868;40.600;2023-02-21T10:28:18;0.40;;;0.30;;
75087;SDS011;63664;44.868;40.600;2023-02-21T10:30:47;0.10;;;0.10;;
75087;SDS011;63664;44.868;40.600;2023-02-21T10:33:18;2.10;;;1.10;;
75087;SDS011;63664;44.868;40.600;2023-02-21T10:35:45;0.77;;;0.50;;
75087;SDS011;63664;44.868;40.600;2023-02-21T10:38:13;3.42;;;0.68;;
75087;SDS011;63664;44.868;40.600;2023-02-21T10:40:45;0.98;;;0.40;;
75087;SDS011;63664;44.868;40.600;2023-02-21T10:46:46;2.40;;;0.40;;
75087;SDS011;63664;44.868;40.600;2023-02-21T10:49:21;0.35;;;0.25;;
75087;SDS011;63664;44.868;40.600;2023-02-21T10:52:04;0.20;;;0.20;;
75087;SDS011;63664;44.868;40.600;2023-02-21T10:54:36;2.05;;;0.20;;
75087;SDS011;63664;44.868;40.600;2023-02-21T10:57:03;0.38;;;0.38;;
75087;SDS011;63664;44.868;40.600;2023-02-21T10:59:34;0.10;;;0.10;;
75087;SDS011;63664;44.868;40.600;2023-02-21T11:05:06;0.10;;;0.10;;
75087;SDS011;63664;44.868;40.600;2023-02-21T11:07:36;4.53;;;0.40;;
75087;SDS011;63664;44.868;40.600;2023-02-21T11:10:09;0.45;;;0.30;;
75087;SDS011;63664;44.868;40.600;2023-02-21T11:15:48;0.68;;;0.13;;
75087;SDS011;63664;44.868;40.600;2023-02-21T11:18:34;0.40;;;0.25;;
75087;SDS011;63664;44.868;40.600;2023-02-21T11:21:09;1.63;;;1.15;;
75087;SDS011;63664;44.868;40.600;2023-02-21T11:23:45;0.20;;;0.20;;
75087;SDS011;63664;44.868;40.600;2023-02-21T11:27:40;0.43;;;0.43;;
75087;SDS011;63664;44.868;40.600;2023-02-21T11:30:19;3.00;;;0.40;;
75087;SDS011;63664;44.868;40.600;2023-02-21T11:32:48;0.20;;;0.20;;
75087;SDS011;63664;44.868;40.600;2023-02-21T11:35:36;0.20;;;0.20;;
75087;SDS011;63664;44.868;40.600;2023-02-21T11:38:28;0.10;;;0.10;;
75087;SDS011;63664;44.868;40.600;2023-02-21T11:41:13;0.20;;;0.20;;
75087;SDS011;63664;44.868;40.600;2023-02-21T11:43:56;3.67;;;0.40;;
75087;SDS011;63664;44.868;40.600;2023-02-21T11:46:36;0.20;;;0.20;;
75087;SDS011;63664;44.868;40.600;2023-02-21T11:49:16;0.45;;;0.45;;
75087;SDS011;63664;44.868;40.600;2023-02-21T11:52:01;0.20;;;0.20;;
75087;SDS011;63664;44.868;40.600;2023-02-21T11:54:37;0.20;;;0.20;;
75087;SDS011;63664;44.868;40.600;2023-02-21T12:00:10;0.20;;;0.20;;
75087;SDS011;63664;44.868;40.600;2023-02-21T12:03:05;0.20;;;0.20;;
75087;SDS011;63664;44.868;40.600;2023-02-21T12:08:38;0.20;;;0.20;;
75087;SDS011;63664;44.868;40.600;2023-02-21T12:11:28;0.10;;;0.10;;
75087;SDS011;63664;44.868;40.600;2023-02-21T12:14:23;0.10;;;0.10;;
75087;SDS011;63664;44.868;40.600;2023-02-21T12:17:17;0.22;;;0.10;;
75087;SDS011;63664;44.868;40.600;2023-02-21T12:48:03;1.38;;;0.20;;
75087;SDS011;63664;44.868;40.600;2023-02-21T12:50:39;0.20;;;0.20;;
75087;SDS011;63664;44.868;40.600;2023-02-21T12:53:31;0.85;;;0.20;;
75087;SDS011;63664;44.868;40.600;2023-02-21T12:58:45;0.20;;;0.20;;
75087;SDS011;63664;44.868;40.600;2023-02-21T13:01:34;0.63;;;0.20;;
75087;SDS011;63664;44.868;40.600;2023-02-21T13:04:26;0.40;;;0.15;;
75087;SDS011;63664;44.868;40.600;2023-02-21T13:07:12;0.10;;;0.10;;
75087;SDS011;63664;44.868;40.600;2023-02-21T13:12:42;0.10;;;0.10;;
75087;SDS011;63664;44.868;40.600;2023-02-21T13:15:22;0.10;;;0.10;;
75087;SDS011;63664;44.868;40.600;2023-02-21T13:17:56;0.17;;;0.17;;
75087;SDS011;63664;44.868;40.600;2023-02-21T13:20:38;0.30;;;0.30;;
75087;SDS011;63664;44.868;40.600;2023-02-21T13:28:58;0.52;;;0.17;;
75087;SDS011;63664;44.868;40.600;2023-02-21T13:31:37;0.52;;;0.20;;
75087;SDS011;63664;44.868;40.600;2023-02-21T13:34:16;0.20;;;0.20;;
75087;SDS011;63664;44.868;40.600;2023-02-21T13:36:48;0.10;;;0.10;;
75087;SDS011;63664;44.868;40.600;2023-02-21T13:39:31;0.32;;;0.10;;
75087;SDS011;63664;44.868;40.600;2023-02-21T13:42:04;0.10;;;0.10;;
75087;SDS011;63664;44.868;40.600;2023-02-21T13:48:17;1.38;;;0.20;;
75087;SDS011;63664;44.868;40.600;2023-02-21T13:53:16;0.10;;;0.10;;
75087;SDS011;63664;44.868;40.600;2023-02-21T13:58:36;0.10;;;0.10;;
75087;SDS011;63664;44.868;40.600;2023-02-21T14:02:13;0.10;;;0.10;;
75087;SDS011;63664;44.868;40.600;2023-02-21T14:13:33;2.10;;;0.45;;
75087;SDS011;63664;44.868;40.600;2023-02-21T14:18:50;3.10;;;0.80;;
75087;SDS011;63664;44.868;40.600;2023-02-21T14:21:38;1.23;;;0.35;;
75087;SDS011;63664;44.868;40.600;2023-02-21T14:26:44;0.88;;;0.57;;
75087;SDS011;63664;44.868;40.600;2023-02-21T14:37:14;0.32;;;0.20;;
75087;SDS011;63664;44.868;40.600;2023-02-21T14:42:41;0.28;;;0.28;;
75087;SDS011;63664;44.868;40.600;2023-02-21T15:08:16;0.10;;;0.10;;
75087;SDS011;63664;44.868;40.600;2023-02-21T15:10:49;0.10;;;0.10;;
75087;SDS011;63664;44.868;40.600;2023-02-21T15:16:06;0.10;;;0.10;;
75087;SDS011;63664;44.868;40.600;2023-02-21T15:18:35;0.08;;;0.08;;
75087;SDS011;63664;44.868;40.600;2023-02-21T15:23:35;0.10;;;0.10;;
75087;SDS011;63664;44.868;40.600;2023-02-21T15:26:17;0.10;;;0.10;;
75087;SDS011;63664;44.868;40.600;2023-02-21T15:29:15;0.40;;;0.10;;
75087;SDS011;63664;44.868;40.600;2023-02-21T15:31:52;0.45;;;0.45;;
75087;SDS011;63664;44.868;40.600;2023-02-21T15:34:22;0.10;;;0.10;;
75087;SDS011;63664;44.868;40.600;2023-02-21T15:39:55;0.40;;;0.10;;
75087;SDS011;63664;44.868;40.600;2023-02-21T15:42:26;0.13;;;0.13;;
75087;SDS011;63664;44.868;40.600;2023-02-21T15:44:59;0.10;;;0.10;;
75087;SDS011;63664;44.868;40.600;2023-02-21T15:47:32;0.05;;;0.05;;
75087;SDS011;63664;44.868;40.600;2023-02-21T15:57:59;0.10;;;0.10;;
75087;SDS011;63664;44.868;40.600;2023-02-21T16:00:34;0.10;;;0.10;;
75087;SDS011;63664;44.868;40.600;2023-02-21T16:08:52;0.15;;;0.15;;
75087;SDS011;63664;44.868;40.600;2023-02-21T16:14:33;0.13;;;0.10;;
75087;SDS011;63664;44.868;40.600;2023-02-21T16:17:07;0.10;;;0.10;;
75087;SDS011;63664;44.868;40.600;2023-02-21T16:19:56;0.10;;;0.10;;
75087;SDS011;63664;44.868;40.600;2023-02-21T16:22:47;0.20;;;0.20;;
75087;SDS011;63664;44.868;40.600;2023-02-21T16:25:20;0.08;;;0.08;;
75087;SDS011;63664;44.868;40.600;2023-02-21T16:27:51;0.15;;;0.15;;
75087;SDS011;63664;44.868;40.600;2023-02-21T16:30:26;0.10;;;0.10;;
75087;SDS011;63664;44.868;40.600;2023-02-21T16:33:00;1.00;;;0.10;;
75087;SDS011;63664;44.868;40.600;2023-02-21T16:35:30;0.13;;;0.13;;
75087;SDS011;63664;44.868;40.600;2023-02-21T16:38:00;0.10;;;0.10;;
75087;SDS011;63664;44.868;40.600;2023-02-21T16:40:30;0.10;;;0.10;;
75087;SDS011;63664;44.868;40.600;2023-02-21T16:43:02;0.10;;;0.10;;
75087;SDS011;63664;44.868;40.600;2023-02-21T16:45:32;0.10;;;0.10;;
75087;SDS011;63664;44.868;40.600;2023-02-21T16:48:03;0.10;;;0.10;;
75087;SDS011;63664;44.868;40.600;2023-02-21T16:50:39;0.17;;;0.17;;
75087;SDS011;63664;44.868;40.600;2023-02-21T16:53:10;0.20;;;0.10;;
75087;SDS011;63664;44.868;40.600;2023-02-21T16:55:43;0.10;;;0.10;;
75087;SDS011;63664;44.868;40.600;2023-02-21T16:58:36;0.10;;;0.10;;
75087;SDS011;63664;44.868;40.600;2023-02-21T17:01:10;0.10;;;0.10;;
75087;SDS011;63664;44.868;40.600;2023-02-21T17:03:57;0.20;;;0.20;;
75087;SDS011;63664;44.868;40.600;2023-02-21T17:06:26;0.10;;;0.10;;
75087;SDS011;63664;44.868;40.600;2023-02-21T17:08:56;0.10;;;0.10;;
75087;SDS011;63664;44.868;40.600;2023-02-21T17:11:25;0.20;;;0.20;;
75087;SDS011;63664;44.868;40.600;2023-02-21T17:13:54;0.10;;;0.10;;
75087;SDS011;63664;44.868;40.600;2023-02-21T17:16:23;0.10;;;0.10;;
75087;SDS011;63664;44.868;40.600;2023-02-21T17:18:52;0.10;;;0.10;;
75087;SDS011;63664;44.868;40.600;2023-02-21T17:21:21;0.15;;;0.10;;
75087;SDS011;63664;44.868;40.600;2023-02-21T17:23:50;0.30;;;0.13;;
75087;SDS011;63664;44.868;40.600;2023-02-21T17:26:18;0.10;;;0.10;;
75087;SDS011;63664;44.868;40.600;2023-02-21T17:28:47;0.20;;;0.20;;
75087;SDS011;63664;44.868;40.600;2023-02-21T17:31:19;5.35;;;0.30;;
75087;SDS011;63664;44.868;40.600;2023-02-21T17:33:45;0.22;;;0.22;;
75087;SDS011;63664;44.868;40.600;2023-02-21T17:36:18;0.10;;;0.10;;
75087;SDS011;63664;44.868;40.600;2023-02-21T17:38:49;0.13;;;0.13;;
75087;SDS011;63664;44.868;40.600;2023-02-21T17:41:20;0.10;;;0.10;;
75087;SDS011;63664;44.868;40.600;2023-02-21T17:43:47;0.20;;;0.20;;
75087;SDS011;63664;44.868;40.600;2023-02-21T17:46:19;0.10;;;0.10;;
75087;SDS011;63664;44.868;40.600;2023-02-21T17:48:45;0.20;;;0.20;;
75087;SDS011;63664;44.868;40.600;2023-02-21T17:51:19;0.10;;;0.10;;
75087;SDS011;63664;44.868;40.600;2023-02-21T17:53:51;0.15;;;0.15;;
75087;SDS011;63664;44.868;40.600;2023-02-21T17:56:19;0.05;;;0.05;;
75087;SDS011;63664;44.868;40.600;2023-02-21T17:58:52;0.10;;;0.10;;
75087;SDS011;63664;44.868;40.600;2023-02-21T18:01:22;0.10;;;0.10;;
75087;SDS011;63664;44.868;40.600;2023-02-21T18:03:53;0.00;;;0.00;;
75087;SDS011;63664;44.868;40.600;2023-02-21T18:06:21;0.10;;;0.10;;
75087;SDS011;63664;44.868;40.600;2023-02-21T18:08:50;0.10;;;0.10;;
75087;SDS011;63664;44.868;40.600;2023-02-21T18:11:20;0.30;;;0.20;;
75087;SDS011;63664;44.868;40.600;2023-02-21T18:13:49;0.10;;;0.10;;
75087;SDS011;63664;44.868;40.600;2023-02-21T18:16:15;0.13;;;0.13;;
75087;SDS011;63664;44.868;40.600;2023-02-21T18:18:42;0.15;;;0.15;;
75087;SDS011;63664;44.868;40.600;2023-02-21T18:21:10;0.40;;;0.10;;
75087;SDS011;63664;44.868;40.600;2023-02-21T18:26:11;0.10;;;0.10;;
75087;SDS011;63664;44.868;40.600;2023-02-21T18:28:40;0.20;;;0.20;;
75087;SDS011;63664;44.868;40.600;2023-02-21T18:31:09;0.10;;;0.10;;
75087;SDS011;63664;44.868;40.600;2023-02-21T18:33:39;0.10;;;0.10;;
75087;SDS011;63664;44.868;40.600;2023-02-21T18:36:08;0.13;;;0.13;;
75087;SDS011;63664;44.868;40.600;2023-02-21T18:38:39;0.10;;;0.10;;